Terminal Aerodrome Forecast
Issued by NWS

Home | Current Version | Previous Version | Text Only | Print | Product List | Glossary On
Versions: 1 2 3 4 5 6 7 8 9 10 11 12 13 14 15 16
000
FTUS43 KEAX 210500
TAFMKC
TAF
KMKC 210520Z 2106/2206 18011KT P6SM SCT150 WS020/23035KT
     FM211400 22015G22KT P6SM SCT070
     FM212300 19011KT P6SM SCT130=

USA.gov is the U.S. government's official web portal to all federal, state and local government web resources and services.